Time;durP1;ratioP1;P1;durP2;ratioP2;P2;SDS_P1;SDS_P2;PMS_P1;PMS_P2;Temp;Humidity;BMP_temperature;BMP_pressure;BME280_temperature;BME280_humidity;BME280_pressure;Samples;Min_cycle;Max_cycle;Signal;HPM_P1;HPM_P2
2023/10/30 00:00:47;;;;;;;6.70;3.30;;;;;;;12.14;91.57;99415.66;105606;1253;81729;-62
2023/10/30 00:03:36;;;;;;;9.10;4.30;;;;;;;12.12;91.51;99416.67;105495;1253;73793;-63
2023/10/30 00:06:04;;;;;;;8.80;3.10;;;;;;;12.10;91.74;99417.15;105531;1254;69125;-62
2023/10/30 00:08:32;;;;;;;7.30;3.00;;;;;;;12.08;91.78;99410.96;105533;1255;69196;-63
2023/10/30 00:11:01;;;;;;;5.60;3.10;;;;;;;12.05;91.76;99412.50;105498;1253;72915;-62
2023/10/30 00:13:29;;;;;;;5.50;2.90;;;;;;;12.01;91.65;99418.84;105517;1255;82899;-62
2023/10/30 00:15:57;;;;;;;6.20;3.10;;;;;;;11.96;91.67;99418.27;105485;1253;72035;-62
2023/10/30 00:18:25;;;;;;;6.00;3.00;;;;;;;11.92;91.79;99416.25;105539;1253;69201;-63
2023/10/30 00:20:54;;;;;;;12.80;6.50;;;;;;;11.90;91.93;99415.52;105572;1253;69097;-63
2023/10/30 00:23:22;;;;;;;5.40;3.10;;;;;;;11.87;92.08;99414.77;105574;1253;73091;-63
2023/10/30 00:25:51;;;;;;;6.00;3.60;;;;;;;11.84;92.06;99415.44;105581;1256;81437;-62
2023/10/30 00:28:19;;;;;;;6.50;3.60;;;;;;;11.82;92.03;99415.73;105555;1253;71891;-62
2023/10/30 00:30:48;;;;;;;8.20;3.70;;;;;;;11.80;91.95;99413.42;105503;1255;69125;-62
2023/10/30 00:33:16;;;;;;;5.90;3.20;;;;;;;11.76;91.93;99418.70;105507;1255;69146;-62
2023/10/30 00:35:44;;;;;;;6.00;3.40;;;;;;;11.73;92.11;99418.02;105505;1255;73130;-62
2023/10/30 00:38:12;;;;;;;8.00;3.50;;;;;;;11.68;92.10;99417.41;105504;1256;82115;-62
2023/10/30 00:40:41;;;;;;;8.90;4.20;;;;;;;11.64;92.14;99421.50;105512;1253;70644;-63
2023/10/30 00:43:09;;;;;;;6.90;3.60;;;;;;;11.61;92.14;99422.55;105504;1255;69154;-62
2023/10/30 00:45:38;;;;;;;6.10;3.70;;;;;;;11.59;92.37;99420.21;105582;1253;69180;-62
2023/10/30 00:48:06;;;;;;;5.00;3.60;;;;;;;11.57;92.25;99413.32;105517;1253;73846;-62
2023/10/30 00:50:35;;;;;;;5.40;3.10;;;;;;;11.56;92.55;99408.46;105511;1253;82805;-62
2023/10/30 00:53:03;;;;;;;7.30;3.80;;;;;;;11.56;92.67;99408.99;105524;1255;71519;-62
2023/10/30 00:55:36;;;;;;;5.50;3.10;;;;;;;11.58;92.57;99407.30;105424;1257;69138;-62
2023/10/30 00:58:07;;;;;;;6.70;3.60;;;;;;;11.61;92.72;99412.05;105532;1253;69279;-62
2023/10/30 01:00:35;;;;;;;5.40;3.40;;;;;;;11.63;92.79;99415.27;105534;1255;72199;-62
2023/10/30 01:03:04;;;;;;;5.90;3.20;;;;;;;11.66;92.87;99417.36;105491;1257;82808;-62
2023/10/30 01:05:33;;;;;;;5.80;3.70;;;;;;;11.70;92.87;99411.74;105543;1253;71866;-62
2023/10/30 01:08:08;;;;;;;5.30;3.30;;;;;;;11.71;92.73;99406.41;105542;1253;69212;-62
2023/10/30 01:10:36;;;;;;;5.40;3.90;;;;;;;11.72;92.80;99405.45;105541;1255;69225;-62
2023/10/30 01:13:05;;;;;;;6.10;3.70;;;;;;;11.75;92.86;99402.12;105475;1253;72874;-62
2023/10/30 01:15:34;;;;;;;7.20;4.20;;;;;;;11.75;92.88;99395.14;105601;1253;80764;-62
2023/10/30 01:18:03;;;;;;;7.90;3.40;;;;;;;11.74;92.61;99405.33;105521;1253;71891;-62
2023/10/30 01:20:32;;;;;;;4.50;3.20;;;;;;;11.73;92.65;99411.17;105547;1253;69071;-62
2023/10/30 01:23:00;;;;;;;10.00;3.70;;;;;;;11.70;92.40;99415.19;105560;1253;69145;-62
2023/10/30 01:25:29;;;;;;;6.20;3.70;;;;;;;11.67;92.22;99414.84;105604;1253;74189;-62
2023/10/30 01:27:57;;;;;;;5.60;3.60;;;;;;;11.65;92.60;99417.63;105587;1255;82361;-62
2023/10/30 01:30:25;;;;;;;6.10;3.40;;;;;;;11.61;92.50;99433.38;105489;1253;70241;-62
2023/10/30 01:32:54;;;;;;;7.10;3.50;;;;;;;11.57;92.42;99427.70;105556;1253;69055;-62
2023/10/30 01:35:22;;;;;;;7.50;4.00;;;;;;;11.51;92.32;99420.47;105474;1258;69107;-62
2023/10/30 01:37:50;;;;;;;8.00;4.00;;;;;;;11.47;92.51;99423.35;105507;1253;73652;-62
2023/10/30 01:40:18;;;;;;;6.90;3.90;;;;;;;11.43;92.54;99423.05;105491;1257;81695;-62
2023/10/30 01:42:46;;;;;;;6.60;4.10;;;;;;;11.38;92.53;99413.87;105532;1253;73033;-62
2023/10/30 01:45:15;;;;;;;7.90;4.30;;;;;;;11.32;92.61;99402.14;105469;1256;69190;-62
2023/10/30 01:47:44;;;;;;;6.70;3.80;;;;;;;11.27;92.75;99401.02;105543;1253;69162;-63
2023/10/30 01:50:14;;;;;;;6.50;4.20;;;;;;;11.22;92.87;99401.64;105503;1253;73064;-63
2023/10/30 01:52:43;;;;;;;7.60;4.20;;;;;;;11.17;92.90;99403.50;105525;1255;81845;-63
2023/10/30 01:55:11;;;;;;;6.80;4.20;;;;;;;11.10;92.83;99391.96;105547;1257;72186;-62
2023/10/30 01:57:40;;;;;;;8.10;4.50;;;;;;;11.05;93.01;99397.89;105605;1255;69117;-62
2023/10/30 02:00:09;;;;;;;6.40;4.10;;;;;;;11.00;93.20;99410.93;105453;1257;69253;-63
2023/10/30 02:02:41;;;;;;;6.60;4.10;;;;;;;10.95;93.47;99412.38;105548;1253;73625;-63
2023/10/30 02:05:10;;;;;;;8.20;4.30;;;;;;;10.91;93.71;99412.60;105521;1253;81765;-67
2023/10/30 02:07:38;;;;;;;9.60;4.10;;;;;;;10.90;93.75;99416.52;105533;1255;73065;-62
2023/10/30 02:10:07;;;;;;;8.80;4.30;;;;;;;10.88;93.99;99407.34;105474;1253;69174;-62
2023/10/30 02:12:35;;;;;;;5.60;4.00;;;;;;;10.88;94.06;99406.13;105387;1258;69221;-62
2023/10/30 02:15:05;;;;;;;8.00;4.50;;;;;;;10.88;94.38;99402.25;105575;1253;73255;-62
2023/10/30 02:17:33;;;;;;;7.00;4.20;;;;;;;10.89;94.52;99408.16;105567;1255;81577;-62
2023/10/30 02:20:01;;;;;;;9.60;4.60;;;;;;;10.89;94.45;99400.30;105545;1255;71475;-62
2023/10/30 02:22:29;;;;;;;10.20;4.20;;;;;;;10.89;94.65;99406.58;105471;1253;69109;-62
2023/10/30 02:24:59;;;;;;;9.60;4.10;;;;;;;10.89;94.69;99421.25;105557;1255;69160;-62
2023/10/30 02:27:27;;;;;;;6.90;3.60;;;;;;;10.91;94.89;99437.09;105568;1253;74675;-62
2023/10/30 02:29:55;;;;;;;6.30;3.80;;;;;;;10.93;94.85;99436.09;105506;1257;82479;-62
2023/10/30 02:32:23;;;;;;;5.50;3.90;;;;;;;10.96;94.97;99435.80;105526;1255;72879;-62
2023/10/30 02:34:52;;;;;;;8.30;4.20;;;;;;;10.97;95.04;99436.75;105518;1256;69097;-63
2023/10/30 02:37:20;;;;;;;5.40;4.00;;;;;;;10.99;95.13;99445.40;105487;1253;69165;-62
2023/10/30 02:39:48;;;;;;;5.70;4.50;;;;;;;11.02;95.06;99444.55;105472;1256;73326;-63
2023/10/30 02:42:17;;;;;;;7.30;4.10;;;;;;;11.03;95.16;99454.78;105553;1255;81302;-63
2023/10/30 02:44:45;;;;;;;9.20;4.30;;;;;;;11.05;95.28;99452.22;105483;1253;71726;-63
2023/10/30 02:47:13;;;;;;;8.40;3.50;;;;;;;11.07;95.26;99440.40;105481;1255;69196;-63
2023/10/30 02:49:41;;;;;;;6.80;3.80;;;;;;;11.09;95.30;99444.16;105561;1256;69288;-63
2023/10/30 02:52:10;;;;;;;6.40;3.70;;;;;;;11.11;95.27;99457.14;105495;1253;74123;-64
2023/10/30 02:54:38;;;;;;;5.30;3.70;;;;;;;11.13;95.44;99473.11;105516;1255;82717;-63
2023/10/30 02:57:06;;;;;;;6.80;3.70;;;;;;;11.14;95.43;99473.58;105512;1255;71413;-63
2023/10/30 02:59:35;;;;;;;5.10;3.60;;;;;;;11.15;95.44;99466.19;105464;1257;69640;-63
2023/10/30 03:02:03;;;;;;;6.90;3.70;;;;;;;11.17;95.45;99468.90;105522;1253;69107;-64
2023/10/30 03:04:32;;;;;;;6.70;4.00;;;;;;;11.17;95.39;99468.89;105534;1256;73229;-64
2023/10/30 03:07:01;;;;;;;6.40;4.10;;;;;;;11.16;95.37;99472.23;105526;1256;82807;-63
2023/10/30 03:09:31;;;;;;;10.70;3.90;;;;;;;11.17;95.53;99483.95;105551;1253;72082;-63
2023/10/30 03:11:59;;;;;;;6.90;3.50;;;;;;;11.16;95.43;99498.30;105514;1255;69456;-63
2023/10/30 03:14:28;;;;;;;6.00;3.70;;;;;;;11.16;95.59;99492.70;105467;1257;69278;-63
2023/10/30 03:16:56;;;;;;;5.40;3.50;;;;;;;11.18;95.71;99501.40;105448;1253;72853;-63
2023/10/30 03:19:24;;;;;;;7.00;3.70;;;;;;;11.18;95.81;99494.88;105502;1255;82742;-63
2023/10/30 03:21:52;;;;;;;5.60;3.50;;;;;;;11.19;95.92;99486.29;105476;1253;72130;-63
2023/10/30 03:24:20;;;;;;;8.40;3.90;;;;;;;11.21;95.84;99487.42;105494;1255;69173;-63
2023/10/30 03:26:50;;;;;;;7.70;3.60;;;;;;;11.21;95.81;99491.28;105478;1253;69184;-63
2023/10/30 03:29:18;;;;;;;6.10;3.20;;;;;;;11.21;95.97;99499.08;105497;1254;71552;-63
2023/10/30 03:31:47;;;;;;;7.00;3.40;;;;;;;11.22;96.00;99498.52;105526;1256;82917;-63
2023/10/30 03:34:18;;;;;;;6.50;3.00;;;;;;;11.23;96.18;99505.45;105463;1259;72129;-63
2023/10/30 03:36:47;;;;;;;10.80;3.40;;;;;;;11.25;96.21;99505.39;105493;1255;69097;-63
2023/10/30 03:39:15;;;;;;;6.00;3.40;;;;;;;11.25;96.18;99514.46;105497;1256;69132;-63
2023/10/30 03:41:44;;;;;;;7.30;3.40;;;;;;;11.24;96.15;99523.59;105484;1256;72821;-64
2023/10/30 03:44:12;;;;;;;6.90;3.50;;;;;;;11.23;96.17;99531.70;105574;1256;81516;-63
2023/10/30 03:46:40;;;;;;;6.80;3.30;;;;;;;11.20;96.12;99523.81;105480;1256;73044;-63
2023/10/30 03:49:10;;;;;;;5.60;3.40;;;;;;;11.18;96.12;99534.61;105562;1255;69090;-64
2023/10/30 03:51:38;;;;;;;4.10;2.90;;;;;;;11.15;96.24;99531.40;105505;1255;69767;-64
2023/10/30 03:54:08;;;;;;;7.30;3.60;;;;;;;11.14;96.25;99535.85;105481;1253;73162;-64
2023/10/30 03:56:36;;;;;;;5.10;3.00;;;;;;;11.11;96.23;99545.96;105497;1255;81427;-63
2023/10/30 03:59:04;;;;;;;5.00;3.20;;;;;;;11.10;96.51;99544.27;105463;1256;72217;-63
2023/10/30 04:01:33;;;;;;;6.30;3.10;;;;;;;11.08;96.60;99543.50;105514;1255;69170;-63
2023/10/30 04:04:02;;;;;;;6.70;3.00;;;;;;;11.08;96.75;99553.98;105534;1255;69107;-63
2023/10/30 04:06:31;;;;;;;3.20;2.70;;;;;;;11.08;96.92;99558.52;105569;1253;73566;-63
2023/10/30 04:08:59;;;;;;;5.10;3.10;;;;;;;11.11;96.98;99558.73;105473;1255;82763;-63
2023/10/30 04:11:27;;;;;;;5.40;2.70;;;;;;;11.13;97.14;99560.88;105495;1253;73144;-63
2023/10/30 04:13:55;;;;;;;4.30;2.90;;;;;;;11.15;97.04;99548.19;105473;1253;69263;-63
2023/10/30 04:16:24;;;;;;;6.90;2.90;;;;;;;11.17;97.14;99556.67;105455;1253;69189;-63
2023/10/30 04:18:52;;;;;;;11.50;3.30;;;;;;;11.17;97.01;99558.59;105606;1253;72993;-63
2023/10/30 04:21:20;;;;;;;7.00;3.80;;;;;;;11.16;96.93;99558.29;105530;1253;82748;-63
2023/10/30 04:23:48;;;;;;;4.60;3.10;;;;;;;11.14;97.00;99558.55;105532;1253;72557;-63
2023/10/30 04:26:19;;;;;;;7.90;3.30;;;;;;;11.12;96.94;99555.70;105494;1252;69064;-64
2023/10/30 04:28:47;;;;;;;5.60;3.40;;;;;;;11.08;96.78;99552.06;105531;1254;69108;-64
2023/10/30 04:31:15;;;;;;;6.20;3.30;;;;;;;11.05;97.00;99530.58;105492;1253;72772;-64
2023/10/30 04:33:44;;;;;;;7.00;3.70;;;;;;;11.01;96.92;99524.82;105477;1253;81720;-63
2023/10/30 04:36:13;;;;;;;6.50;3.40;;;;;;;10.98;97.20;99531.27;105465;1255;71363;-63
2023/10/30 04:38:41;;;;;;;5.60;3.40;;;;;;;10.95;97.15;99546.80;105547;1255;69224;-63
2023/10/30 04:41:09;;;;;;;3.90;2.90;;;;;;;10.90;97.16;99552.81;105495;1253;69186;-63
2023/10/30 04:43:37;;;;;;;5.40;3.50;;;;;;;10.88;97.31;99546.45;105521;1256;73037;-63
2023/10/30 04:46:06;;;;;;;4.30;3.00;;;;;;;10.87;97.55;99546.04;105480;1253;81183;-63
2023/10/30 04:48:35;;;;;;;4.80;3.30;;;;;;;10.85;97.71;99553.79;105551;1253;71916;-63
2023/10/30 04:51:04;;;;;;;5.10;3.10;;;;;;;10.85;97.81;99552.93;105547;1256;69297;-63
2023/10/30 04:53:32;;;;;;;6.70;3.50;;;;;;;10.84;97.93;99559.63;105576;1256;69168;-63
2023/10/30 04:56:02;;;;;;;4.90;3.20;;;;;;;10.83;97.93;99562.63;105493;1254;74206;-63
2023/10/30 04:58:30;;;;;;;6.90;3.50;;;;;;;10.84;98.12;99570.98;105579;1255;82945;-64
2023/10/30 05:00:58;;;;;;;9.30;3.50;;;;;;;10.85;98.48;99570.40;105486;1254;72080;-63
2023/10/30 05:03:27;;;;;;;6.30;4.00;;;;;;;10.87;98.58;99570.45;105561;1253;69187;-63
2023/10/30 05:05:55;;;;;;;9.20;5.50;;;;;;;10.89;98.74;99570.51;105565;1256;69209;-62
2023/10/30 05:08:24;;;;;;;5.70;3.70;;;;;;;10.90;98.70;99580.60;105561;1258;74145;-62
2023/10/30 05:10:52;;;;;;;6.60;3.90;;;;;;;10.92;98.81;99584.20;105534;1253;82262;-61
2023/10/30 05:13:21;;;;;;;8.50;3.90;;;;;;;10.93;98.93;99586.56;105624;1253;70824;-62
2023/10/30 05:15:49;;;;;;;9.40;5.00;;;;;;;10.95;98.87;99588.41;105526;1257;69174;-62
2023/10/30 05:18:22;;;;;;;7.80;4.00;;;;;;;10.97;98.88;99588.17;105528;1253;69188;-63
2023/10/30 05:20:51;;;;;;;12.90;6.20;;;;;;;10.98;99.04;99583.88;105588;1253;73179;-63
2023/10/30 05:23:19;;;;;;;12.70;5.00;;;;;;;10.99;99.02;99577.54;105784;1257;81496;-62
2023/10/30 05:25:47;;;;;;;6.80;4.10;;;;;;;11.01;99.14;99581.11;105737;1254;72148;-62
2023/10/30 05:28:16;;;;;;;6.00;3.80;;;;;;;11.03;99.12;99578.56;105860;1255;69934;-62
2023/10/30 05:30:44;;;;;;;5.80;3.40;;;;;;;11.06;99.15;99589.11;105590;1257;69138;-62
2023/10/30 05:33:12;;;;;;;6.00;3.70;;;;;;;11.07;99.15;99590.97;105569;1256;73755;-62
2023/10/30 05:35:40;;;;;;;8.70;3.80;;;;;;;11.09;99.32;99588.39;105597;1255;82133;-62
2023/10/30 05:38:09;;;;;;;6.20;3.60;;;;;;;11.10;99.16;99590.23;105533;1254;70933;-62
2023/10/30 05:40:37;;;;;;;6.00;3.70;;;;;;;11.11;99.27;99589.15;105596;1253;69151;-62
2023/10/30 05:43:06;;;;;;;9.30;4.40;;;;;;;11.12;99.31;99585.77;105650;1255;69937;-62
2023/10/30 05:45:34;;;;;;;7.00;4.10;;;;;;;11.13;99.18;99578.58;105583;1253;74463;-62
2023/10/30 05:48:02;;;;;;;7.40;4.20;;;;;;;11.13;99.22;99580.33;105552;1257;81838;-64
2023/10/30 05:50:31;;;;;;;7.40;4.10;;;;;;;11.10;99.19;99580.29;108383;1255;72277;-64
2023/10/30 05:52:59;;;;;;;8.60;5.30;;;;;;;11.07;99.14;99577.49;105551;1256;69780;-65
2023/10/30 05:55:27;;;;;;;7.00;3.80;;;;;;;11.05;99.23;99574.06;105725;1256;69269;-62
2023/10/30 05:57:56;;;;;;;5.50;3.50;;;;;;;11.04;99.16;99572.35;105714;1253;72768;-64
2023/10/30 06:00:25;;;;;;;6.30;3.40;;;;;;;11.00;99.00;99568.59;105628;1257;81655;-67
2023/10/30 06:02:53;;;;;;;4.10;3.40;;;;;;;10.95;99.05;99574.42;105571;1253;71940;-67
2023/10/30 06:05:22;;;;;;;6.30;3.20;;;;;;;10.88;98.89;99571.13;105653;1255;69306;-63
2023/10/30 06:07:50;;;;;;;4.40;3.20;;;;;;;10.80;98.84;99567.67;105640;1254;69068;-63
2023/10/30 06:10:20;;;;;;;5.20;3.20;;;;;;;10.69;98.80;99548.30;105568;1254;72817;-63
2023/10/30 06:12:50;;;;;;;6.00;3.00;;;;;;;10.62;98.88;99545.18;105584;1253;82912;-63
2023/10/30 06:15:18;;;;;;;5.80;3.50;;;;;;;10.55;98.97;99543.10;105596;1257;72022;-62
2023/10/30 06:17:46;;;;;;;4.80;3.40;;;;;;;10.49;99.28;99553.35;105551;1256;69199;-62
2023/10/30 06:20:15;;;;;;;6.60;3.50;;;;;;;10.47;99.66;99555.90;105690;1255;69175;-62
2023/10/30 06:22:43;;;;;;;9.30;3.50;;;;;;;10.44;99.69;99549.91;105705;1253;73858;-62
2023/10/30 06:25:11;;;;;;;6.60;4.10;;;;;;;10.43;99.77;99544.58;105554;1256;83044;-62
2023/10/30 06:27:41;;;;;;;6.20;5.10;;;;;;;10.42;100.00;99552.48;107108;1256;73186;-62
2023/10/30 06:30:12;;;;;;;42.70;31.90;;;;;;;10.43;100.00;99556.47;105666;1253;69221;-62
2023/10/30 06:32:41;;;;;;;30.70;25.30;;;;;;;10.43;100.00;99565.36;105665;1265;69209;-61
2023/10/30 06:35:10;;;;;;;12.70;10.30;;;;;;;10.42;100.00;99568.20;105675;1256;74021;-63
2023/10/30 06:37:38;;;;;;;11.20;7.80;;;;;;;10.41;100.00;99559.67;105697;1254;80444;-63
2023/10/30 06:40:07;;;;;;;15.70;6.50;;;;;;;10.43;100.00;99553.66;105675;1253;72018;-63
2023/10/30 06:42:35;;;;;;;14.70;7.40;;;;;;;10.44;100.00;99555.85;105561;1257;69178;-62
2023/10/30 06:45:05;;;;;;;16.00;8.80;;;;;;;10.45;100.00;99552.84;105506;1257;69176;-62
2023/10/30 06:47:33;;;;;;;11.80;7.80;;;;;;;10.46;100.00;99566.25;105754;1255;73727;-62
2023/10/30 06:50:02;;;;;;;11.90;9.50;;;;;;;10.47;100.00;99571.94;105577;1256;82565;-62
2023/10/30 06:52:31;;;;;;;22.00;11.90;;;;;;;10.51;100.00;99579.65;105634;1254;71853;-62
2023/10/30 06:55:00;;;;;;;27.80;17.90;;;;;;;10.53;100.00;99590.20;105631;1254;69289;-60
2023/10/30 06:57:28;;;;;;;20.30;11.60;;;;;;;10.55;100.00;99598.82;105662;1256;69174;-62
2023/10/30 06:59:57;;;;;;;9.80;5.10;;;;;;;10.58;100.00;99608.65;105710;1256;72841;-64
2023/10/30 07:02:25;;;;;;;6.80;5.30;;;;;;;10.59;100.00;99616.78;105658;1254;81964;-63
2023/10/30 07:04:54;;;;;;;7.30;5.00;;;;;;;10.61;100.00;99619.47;105679;1256;73238;-63
2023/10/30 07:07:22;;;;;;;7.40;5.40;;;;;;;10.64;100.00;99615.33;105539;1253;69160;-64
2023/10/30 07:09:50;;;;;;;7.20;5.70;;;;;;;10.67;100.00;99619.89;105505;1256;69244;-66
2023/10/30 07:12:18;;;;;;;7.30;5.20;;;;;;;10.70;100.00;99619.90;105508;1255;72567;-65
2023/10/30 07:14:47;;;;;;;8.00;5.60;;;;;;;10.73;100.00;99619.25;105525;1255;81842;-65
2023/10/30 07:17:15;;;;;;;9.20;6.10;;;;;;;10.76;100.00;99617.88;105568;1256;70097;-64
2023/10/30 07:19:44;;;;;;;9.20;5.60;;;;;;;10.79;100.00;99628.20;105505;1254;69178;-65
2023/10/30 07:22:12;;;;;;;9.30;6.70;;;;;;;10.83;100.00;99633.95;105484;1255;69203;-63
2023/10/30 07:24:40;;;;;;;8.90;6.60;;;;;;;10.88;100.00;99634.39;105538;1255;74179;-64
2023/10/30 07:27:08;;;;;;;10.70;7.10;;;;;;;10.93;100.00;99636.95;105461;1256;82703;-63
2023/10/30 07:29:36;;;;;;;8.70;6.00;;;;;;;10.98;100.00;99633.73;105520;1255;70819;-63
2023/10/30 07:32:05;;;;;;;7.90;5.90;;;;;;;11.02;100.00;99628.60;105468;1254;69137;-63
2023/10/30 07:34:33;;;;;;;11.00;6.60;;;;;;;11.06;100.00;99623.34;105600;1256;69176;-63
2023/10/30 07:37:01;;;;;;;9.30;6.60;;;;;;;11.10;100.00;99624.35;105504;1255;72900;-63
2023/10/30 07:39:30;;;;;;;8.40;6.10;;;;;;;11.14;100.00;99624.47;105500;1255;83240;-63
2023/10/30 07:41:58;;;;;;;8.00;6.30;;;;;;;11.19;100.00;99623.55;105449;1257;71680;-63
2023/10/30 07:44:26;;;;;;;29.30;15.10;;;;;;;11.23;100.00;99628.95;105528;1256;69164;-63
2023/10/30 07:46:55;;;;;;;29.80;13.10;;;;;;;11.25;100.00;99642.12;105574;1257;69160;-63
2023/10/30 07:49:23;;;;;;;20.00;9.90;;;;;;;11.27;100.00;99649.67;105566;1256;72962;-63
2023/10/30 07:51:51;;;;;;;16.40;8.60;;;;;;;11.30;100.00;99652.15;105465;1266;81849;-63
2023/10/30 07:54:20;;;;;;;13.30;7.10;;;;;;;11.33;100.00;99652.55;105503;1256;71960;-63
2023/10/30 07:56:48;;;;;;;7.60;6.00;;;;;;;11.35;100.00;99656.45;105590;1256;69120;-63
2023/10/30 07:59:16;;;;;;;11.40;6.10;;;;;;;11.39;100.00;99656.77;105590;1257;69178;-63
2023/10/30 08:01:45;;;;;;;7.90;6.30;;;;;;;11.45;100.00;99658.38;105583;1257;74242;-63
2023/10/30 08:04:13;;;;;;;8.50;5.80;;;;;;;11.51;100.00;99664.89;105579;1257;82877;-63
2023/10/30 08:06:42;;;;;;;8.00;6.00;;;;;;;11.58;100.00;99667.13;105491;1256;71910;-63
2023/10/30 08:09:12;;;;;;;7.80;6.30;;;;;;;11.66;100.00;99671.81;105545;1256;69224;-63
2023/10/30 08:11:40;;;;;;;10.70;6.00;;;;;;;11.73;100.00;99670.55;105589;1256;69158;-63
2023/10/30 08:14:08;;;;;;;12.10;6.20;;;;;;;11.81;100.00;99659.80;105573;1256;74123;-63
2023/10/30 08:16:36;;;;;;;8.50;5.90;;;;;;;11.88;100.00;99659.11;105473;1257;81865;-63
2023/10/30 08:19:05;;;;;;;8.60;5.70;;;;;;;11.96;100.00;99657.64;105550;1256;72608;-63
2023/10/30 08:21:33;;;;;;;9.40;6.00;;;;;;;12.04;100.00;99657.38;105530;1255;69171;-63
2023/10/30 08:24:01;;;;;;;9.70;6.10;;;;;;;12.13;100.00;99651.27;105519;1256;69179;-63
2023/10/30 08:26:30;;;;;;;9.90;8.00;;;;;;;12.23;100.00;99650.90;105527;1257;73075;-62
2023/10/30 08:28:58;;;;;;;11.90;8.40;;;;;;;12.31;100.00;99655.84;105597;1256;82853;-63
2023/10/30 08:31:26;;;;;;;28.30;18.10;;;;;;;12.40;100.00;99656.76;105551;1254;71725;-63
2023/10/30 08:33:57;;;;;;;46.80;27.30;;;;;;;12.49;100.00;99651.84;105550;1254;69073;-63
2023/10/30 08:36:25;;;;;;;42.30;27.90;;;;;;;12.63;100.00;99651.59;105557;1254;69087;-63
2023/10/30 08:38:53;;;;;;;34.10;23.40;;;;;;;12.74;100.00;99662.15;105523;1253;74155;-63
2023/10/30 08:41:23;;;;;;;18.20;13.00;;;;;;;12.89;100.00;99670.77;105568;1257;81452;-63
2023/10/30 08:43:52;;;;;;;14.70;11.10;;;;;;;13.04;100.00;99663.78;105534;1257;71495;-63
2023/10/30 08:46:21;;;;;;;8.30;7.20;;;;;;;13.21;100.00;99669.77;105557;1265;69130;-63
2023/10/30 08:48:49;;;;;;;7.40;5.50;;;;;;;13.41;100.00;99674.42;105473;1256;69112;-63
2023/10/30 08:51:17;;;;;;;9.20;6.00;;;;;;;13.58;100.00;99675.27;105592;1258;72602;-63
2023/10/30 08:53:46;;;;;;;9.40;5.90;;;;;;;13.78;100.00;99676.56;105490;1256;82713;-63
2023/10/30 08:56:14;;;;;;;6.60;5.00;;;;;;;13.97;100.00;99676.56;105577;1256;72004;-63
2023/10/30 08:58:43;;;;;;;6.80;4.90;;;;;;;14.15;100.00;99677.23;105581;1256;69258;-63
2023/10/30 09:01:11;;;;;;;7.20;5.00;;;;;;;14.29;99.99;99679.29;105587;1256;69203;-63
2023/10/30 09:03:41;;;;;;;6.50;4.80;;;;;;;14.44;99.71;99684.14;105524;1257;73528;-63
2023/10/30 09:06:09;;;;;;;7.40;4.80;;;;;;;14.60;99.48;99687.19;105430;1254;162295;-63
2023/10/30 09:08:38;;;;;;;9.90;4.50;;;;;;;14.78;99.33;99688.44;105516;1254;73140;-63
2023/10/30 09:11:06;;;;;;;8.70;4.40;;;;;;;14.93;98.75;99698.02;105455;1259;69174;-63
2023/10/30 09:13:34;;;;;;;6.10;5.00;;;;;;;15.02;98.06;99701.14;105526;1258;69253;-63
2023/10/30 09:16:04;;;;;;;7.80;4.60;;;;;;;15.12;97.68;99701.89;105469;1257;72968;-63
2023/10/30 09:18:32;;;;;;;6.70;4.90;;;;;;;15.19;97.13;99706.52;105556;1257;81241;-63
2023/10/30 09:21:01;;;;;;;6.30;4.60;;;;;;;15.29;96.92;99703.86;105466;1257;71705;-63
2023/10/30 09:23:29;;;;;;;10.40;5.20;;;;;;;15.39;96.50;99704.25;105550;1256;69148;-63
2023/10/30 09:25:57;;;;;;;5.80;4.30;;;;;;;15.47;96.17;99706.23;105591;1256;69174;-63
2023/10/30 09:28:25;;;;;;;7.80;4.60;;;;;;;15.49;95.75;99709.06;105559;1257;73163;-63
2023/10/30 09:30:54;;;;;;;5.00;4.10;;;;;;;15.54;95.61;99704.64;105481;1257;82925;-63
2023/10/30 09:33:22;;;;;;;6.80;4.60;;;;;;;15.75;95.81;99693.34;105500;1257;72914;-63
2023/10/30 09:35:50;;;;;;;5.20;3.90;;;;;;;16.02;95.89;99683.39;105604;1254;69176;-63
2023/10/30 09:38:18;;;;;;;5.30;3.90;;;;;;;16.21;95.36;99684.52;105557;1255;69292;-63
2023/10/30 09:40:56;;;;;;;5.60;3.70;;;;;;;16.40;94.85;99684.83;105514;1256;73574;-63
2023/10/30 09:43:28;;;;;;;4.70;3.60;;;;;;;16.60;94.39;99683.58;105586;1256;84058;-63
2023/10/30 09:45:58;;;;;;;4.90;3.50;;;;;;;16.87;94.20;99696.30;105526;1255;71876;-63
2023/10/30 09:48:28;;;;;;;5.00;2.90;;;;;;;17.10;93.65;99689.60;105569;1255;69058;-63
2023/10/30 09:50:58;;;;;;;5.00;3.80;;;;;;;17.35;93.08;99685.45;105557;1254;69070;-63
2023/10/30 09:53:27;;;;;;;4.70;3.10;;;;;;;17.62;92.74;99684.76;105556;1257;74204;-63
2023/10/30 09:55:56;;;;;;;7.10;3.60;;;;;;;17.92;92.41;99682.95;105564;1257;82742;-63
2023/10/30 09:58:24;;;;;;;4.20;2.80;;;;;;;18.18;91.45;99694.14;105541;1257;72172;-63
2023/10/30 10:00:52;;;;;;;3.70;3.00;;;;;;;18.43;91.00;99686.10;105529;1257;69204;-63
2023/10/30 10:03:21;;;;;;;3.00;2.70;;;;;;;18.70;90.32;99685.48;105586;1256;69179;-63
2023/10/30 10:05:55;;;;;;;6.80;2.80;;;;;;;19.01;89.58;99689.89;105651;1254;73358;-63
2023/10/30 10:08:24;;;;;;;3.50;2.60;;;;;;;19.36;89.39;99690.48;105579;1256;81789;-63
2023/10/30 10:11:02;;;;;;;4.10;1.90;;;;;;;19.41;87.79;99681.60;105559;1258;70884;-63
2023/10/30 10:13:33;;;;;;;3.50;2.40;;;;;;;19.23;86.20;99673.33;105525;1254;69160;-63
2023/10/30 10:16:01;;;;;;;3.90;2.20;;;;;;;19.20;85.78;99670.11;105582;1255;69094;-63
2023/10/30 10:18:31;;;;;;;4.00;2.00;;;;;;;19.17;85.15;99669.08;105610;1254;74402;-63
2023/10/30 10:21:11;;;;;;;3.80;2.10;;;;;;;19.02;84.13;99661.71;105568;1256;82671;-63
2023/10/30 10:23:40;;;;;;;3.60;1.70;;;;;;;18.86;83.23;99661.34;105570;1257;72010;-63
2023/10/30 10:26:15;;;;;;;3.00;1.90;;;;;;;18.78;83.18;99656.81;105544;1254;69141;-64
2023/10/30 10:28:46;;;;;;;3.30;2.00;;;;;;;18.93;82.98;99652.16;105577;1256;69237;-63
2023/10/30 10:31:14;;;;;;;3.40;2.20;;;;;;;18.92;82.41;99648.14;105600;1263;73199;-63
2023/10/30 10:33:43;;;;;;;4.20;2.30;;;;;;;19.00;82.48;99647.36;105668;1256;81243;-63
2023/10/30 10:36:13;;;;;;;4.20;2.10;;;;;;;19.23;81.98;99637.23;105597;1254;72987;-63
2023/10/30 10:38:56;;;;;;;3.40;1.80;;;;;;;19.54;81.75;99640.77;105626;1256;69118;-63
2023/10/30 10:41:25;;;;;;;2.20;1.70;;;;;;;19.80;80.84;99634.05;105586;1253;69219;-63
2023/10/30 10:43:55;;;;;;;2.50;1.80;;;;;;;20.06;80.16;99628.23;105607;1258;73117;-63
2023/10/30 10:46:23;;;;;;;4.80;1.70;;;;;;;20.30;79.56;99628.38;105481;1254;82961;-63
2023/10/30 10:48:52;;;;;;;2.70;1.90;;;;;;;20.42;78.50;99627.65;105490;1254;71931;-64
2023/10/30 10:51:34;;;;;;;4.40;2.10;;;;;;;20.48;77.44;99638.30;105560;1254;69141;-63
2023/10/30 10:54:07;;;;;;;3.20;1.80;;;;;;;20.56;76.91;99640.33;105540;1253;69237;-63
2023/10/30 10:56:38;;;;;;;3.30;2.30;;;;;;;20.65;76.37;99642.09;105611;1254;74742;-63
2023/10/30 10:59:11;;;;;;;6.00;2.10;;;;;;;20.80;76.17;99646.83;105577;1265;82588;-61
2023/10/30 11:01:41;;;;;;;3.10;1.90;;;;;;;21.07;75.77;99644.16;105527;1256;73186;-63
2023/10/30 11:04:11;;;;;;;2.30;1.70;;;;;;;21.29;74.22;99643.11;105545;1254;69080;-63
2023/10/30 11:06:45;;;;;;;5.30;2.10;;;;;;;21.50;73.60;99645.47;105559;1256;69195;-61
2023/10/30 11:09:24;;;;;;;3.80;1.70;;;;;;;21.79;73.17;99646.65;105578;1256;73003;-61
2023/10/30 11:11:55;;;;;;;4.40;2.00;;;;;;;22.13;72.38;99649.55;105587;1256;82692;-61
2023/10/30 11:14:50;;;;;;;2.50;1.40;;;;;;;22.28;71.40;99654.50;105503;1256;71979;-61
2023/10/30 11:17:18;;;;;;;1.90;1.40;;;;;;;22.46;70.69;99647.58;105599;1252;69092;-61
2023/10/30 11:19:47;;;;;;;4.00;1.20;;;;;;;22.63;69.86;99639.85;105588;1259;69177;-62
2023/10/30 11:22:36;;;;;;;2.60;1.30;;;;;;;22.79;69.09;99637.20;105577;1255;72949;-62
2023/10/30 11:25:43;;;;;;;3.70;1.10;;;;;;;22.87;67.80;99643.33;105562;1257;82838;-62
2023/10/30 11:28:12;;;;;;;2.20;1.00;;;;;;;23.03;67.00;99637.45;105022;1260;71529;-62
2023/10/30 11:30:42;;;;;;;1.70;1.00;;;;;;;23.28;66.96;99633.30;105422;1254;69163;-62